メインページ
METAR-TAF:

METAR-TAF

空港 :

シドニー国際空港

シドニー, オーストラリア

緯度: 33-57S, 経度: 151-11E, 海抜: 6m

現時点の気象観測

当レポートは21分前の04:00(UTC)に作成
北東の風 17kt
気温 25°C
湿度 61%
気圧 1009 hPa
視程10km以上
高度3000ftの雲はほとんどない
高度22000ftの千切れ雲あり

METAR: YSSY 200400Z 04017KT 9999 FEW030 BKN220 25/17 Q1009 TEMPO 0600/0700 VRB25G40KT 3000 TSRA BKN010 SCT035CB

時間: 15:21 (04:21 UTC)

予報

当レポートは4時間55分前の23:26(UTC)に作成
予報は20日の 00時(UTC)から 21日の 06時(UTC)まで有効
の風 10kt
視程10km以上
1,500メートル以下は雲なし、積乱雲なし
20日の 0200時(UTC)から
北東の風 15kt
視程10km以上
高度4000ftの雲は散在している
弱いにわか雨
20日の 1000時(UTC)から
南/南西の風 10kt
視程10km以上
高度1000ftの雲は散在している
高度2000ftの千切れ雲あり
弱いにわか雨
20日の 1200時(UTC)から
の風 15kt、最大25ktの突風を伴う
視程10km以上
高度1000ftの雲は散在している
高度1500ftの千切れ雲あり
小雨
21日の 0200時(UTC)から
南/南西の風 20kt
視程10km以上
高度2500ftの雲は散在している
20日の 12時(UTC)から 20日の 24時(UTC)まで一時的に
視程: 4000m
高度1000ftの千切れ雲あり
確率 30% :
20日の 04時(UTC)から 20日の 12時(UTC)まで一時的に
変向風 25kt、最大40ktの突風を伴う
視程: 3000m
高度1000ftの千切れ雲あり
高度3500ftの雲は散在している, 積乱雲.
激しい雷雨, 雨

TAF: YSSY 192326Z 2000/2106 35010KT CAVOK FM200200 04015KT 9999 -SHRA SCT040 FM201000 21010KT 9999 -SHRA SCT010 BKN020 FM201200 18015G25KT 9999 -RA SCT010 BKN015 FM210200 21020KT 9999 SCT025 TEMPO 2012/2024 4000 RA BKN010 PROB30 TEMPO 2004/2012 VRB25G40KT 3000 TSRA BKN010 SCT035CB

4,000以上の空港の気象観測と天気予報(METAR報とTAF報)

利用可能な観測所は地図上に黄色い丸と赤い丸で示す。

丸の上にカーソルを重ねると観測所名を参照できる。

次にクリックすると気象観測と天気予報を参照できる。

マップの切り替え:黒色「×」印の緑ボタンをクリックして拡大、「-」印の緑ボタンをクリックして縮小、緑色の三角印をクリックして隣りの地図に切り替え


METAR-TAF: